createdAt,value
2023-12-22T00:02:10.355Z,97620.53
2023-12-22T00:04:36.249Z,97613.19
2023-12-22T00:07:02.092Z,97623.94
2023-12-22T00:09:27.868Z,97634.69
2023-12-22T00:11:53.809Z,97632.97
2023-12-22T00:14:19.623Z,97646.59
2023-12-22T00:16:45.444Z,97643.88
2023-12-22T00:19:11.285Z,97643.16
2023-12-22T00:21:37.126Z,97643.22
2023-12-22T00:24:03.076Z,97659.19
2023-12-22T00:26:28.877Z,97670.56
2023-12-22T00:28:54.714Z,97671.47
2023-12-22T00:31:20.570Z,97682.59
2023-12-22T00:33:47.086Z,97696.09
2023-12-22T00:36:12.980Z,97682.94
2023-12-22T00:38:38.784Z,97676.00
2023-12-22T00:41:04.587Z,97680.41
2023-12-22T00:43:30.558Z,97662.03
2023-12-22T00:45:57.809Z,97678.13
2023-12-22T00:48:24.088Z,97674.94
2023-12-22T00:50:50.041Z,97681.19
2023-12-22T00:53:15.881Z,97689.44
2023-12-22T00:55:41.700Z,97715.66
2023-12-22T00:58:07.587Z,97732.38
2023-12-22T01:00:33.490Z,97737.34
2023-12-22T01:02:59.367Z,97692.25
2023-12-22T01:05:25.277Z,97665.91
2023-12-22T01:07:51.538Z,97637.44
2023-12-22T01:10:17.631Z,97640.72
2023-12-22T01:12:43.544Z,97638.56
2023-12-22T01:15:09.418Z,97662.97
2023-12-22T01:17:35.356Z,97683.28
2023-12-22T01:20:01.271Z,97683.13
2023-12-22T01:22:27.164Z,97679.16
2023-12-22T01:24:52.964Z,97679.00
2023-12-22T01:27:18.784Z,97674.75
2023-12-22T01:29:44.598Z,97673.25
2023-12-22T01:32:10.448Z,97684.38
2023-12-22T01:34:36.275Z,97688.03
2023-12-22T01:37:02.349Z,97681.50
2023-12-22T01:39:28.146Z,97679.72
2023-12-22T01:41:54.081Z,97687.41
2023-12-22T01:44:19.897Z,97689.91
2023-12-22T01:46:45.908Z,97685.16
2023-12-22T01:49:12.813Z,97706.28
2023-12-22T01:51:40.291Z,97709.94
2023-12-22T01:54:07.055Z,97705.06
2023-12-22T01:56:33.442Z,97700.94
2023-12-22T01:59:01.697Z,97671.69
2023-12-22T02:01:28.642Z,97666.16
2023-12-22T02:03:54.989Z,97650.78
2023-12-22T02:06:21.510Z,97628.63
2023-12-22T02:08:48.085Z,97644.59
2023-12-22T02:11:17.243Z,97615.69
2023-12-22T02:13:46.612Z,97612.19
2023-12-22T02:16:39.610Z,97622.78
2023-12-22T02:19:45.594Z,97618.22
2023-12-22T02:22:12.498Z,97592.28
2023-12-22T02:24:39.788Z,97628.63
2023-12-22T02:27:08.484Z,97619.94
2023-12-22T02:29:38.241Z,97585.88
2023-12-22T02:32:10.456Z,97579.59
2023-12-22T02:34:40.380Z,97603.28
2023-12-22T02:37:09.226Z,97615.19
2023-12-22T02:39:36.097Z,97635.50
2023-12-22T02:42:04.320Z,97656.94
2023-12-22T02:44:30.782Z,97668.03
2023-12-22T02:46:56.725Z,97652.56
2023-12-22T02:49:22.686Z,97661.22
2023-12-22T02:51:48.575Z,97668.13
2023-12-22T02:54:14.516Z,97657.75
2023-12-22T02:56:40.309Z,97628.38
2023-12-22T02:59:06.261Z,97632.69
2023-12-22T03:01:32.152Z,97629.00
2023-12-22T03:03:58.055Z,97629.06
2023-12-22T03:06:23.828Z,97626.84
2023-12-22T03:08:49.676Z,97633.59
2023-12-22T03:11:15.501Z,97634.41
2023-12-22T03:13:41.418Z,97642.47
2023-12-22T03:16:10.397Z,97661.19
2023-12-22T03:18:39.483Z,97665.59
2023-12-22T03:21:05.580Z,97653.00
2023-12-22T03:23:31.405Z,97671.72
2023-12-22T03:25:57.238Z,97692.16
2023-12-22T03:28:23.083Z,97693.97
2023-12-22T03:30:48.991Z,97713.56
2023-12-22T03:33:14.888Z,97710.34
2023-12-22T03:35:40.843Z,97698.13
2023-12-22T03:38:06.676Z,97700.00
2023-12-22T03:40:33.070Z,97690.25
2023-12-22T03:42:58.859Z,97687.66
2023-12-22T03:45:24.684Z,97677.75
2023-12-22T03:47:50.702Z,97674.16
2023-12-22T03:50:16.740Z,97700.38
2023-12-22T03:52:42.600Z,97695.34
2023-12-22T03:55:08.546Z,97710.88
2023-12-22T03:57:34.397Z,97709.22
2023-12-22T04:00:00.311Z,97719.97
2023-12-22T04:02:26.141Z,97724.28
2023-12-22T04:04:52.031Z,97710.81
2023-12-22T04:07:17.900Z,97728.25
2023-12-22T04:09:43.741Z,97725.75
2023-12-22T04:12:09.604Z,97722.81
2023-12-22T04:14:35.463Z,97716.81
2023-12-22T04:17:01.423Z,97740.84
2023-12-22T04:19:27.527Z,97728.31
2023-12-22T04:21:53.425Z,97734.91
2023-12-22T04:24:19.254Z,97747.66
2023-12-22T04:26:45.059Z,97758.78
2023-12-22T04:29:11.397Z,97754.72
2023-12-22T04:31:37.263Z,97747.72
2023-12-22T04:34:03.116Z,97742.84
2023-12-22T04:36:28.927Z,97744.53
2023-12-22T04:38:54.745Z,97741.03
2023-12-22T04:41:20.755Z,97748.91
2023-12-22T04:43:46.597Z,97746.56
2023-12-22T04:46:12.530Z,97761.81
2023-12-22T04:48:38.463Z,97751.13
2023-12-22T04:51:04.501Z,97749.81
2023-12-22T04:53:30.530Z,97755.50
2023-12-22T04:55:56.549Z,97752.88
2023-12-22T04:58:22.588Z,97764.66
2023-12-22T05:00:48.465Z,97759.66
2023-12-22T05:03:14.330Z,97762.09
2023-12-22T05:05:40.224Z,97768.97
2023-12-22T05:08:06.897Z,97773.22
2023-12-22T05:10:32.846Z,97769.09
2023-12-22T05:12:58.854Z,97777.47
2023-12-22T05:15:24.669Z,97794.22
2023-12-22T05:17:50.781Z,97804.03
2023-12-22T05:20:17.023Z,97815.44
2023-12-22T05:22:43.282Z,97817.56
2023-12-22T05:25:10.432Z,97811.66
2023-12-22T05:27:36.295Z,97819.53
2023-12-22T05:30:04.321Z,97818.25
2023-12-22T05:32:30.528Z,97827.91
2023-12-22T05:34:56.480Z,97824.84
2023-12-22T05:37:22.329Z,97822.16
2023-12-22T05:39:48.122Z,97823.75
2023-12-22T05:42:13.923Z,97826.41
2023-12-22T05:44:40.047Z,97833.56
2023-12-22T05:47:06.031Z,97831.94
2023-12-22T05:49:32.044Z,97833.13
2023-12-22T05:51:57.893Z,97836.88
2023-12-22T05:54:25.507Z,97840.28
2023-12-22T05:56:53.448Z,97853.53
2023-12-22T05:59:20.389Z,97855.41
2023-12-22T06:01:46.228Z,97857.25
2023-12-22T06:04:12.066Z,97858.56
2023-12-22T06:06:39.211Z,97864.66
2023-12-22T06:09:05.641Z,97859.78
2023-12-22T06:11:31.562Z,97870.84
2023-12-22T06:13:57.490Z,97886.81
2023-12-22T06:16:23.388Z,97895.25
2023-12-22T06:18:49.253Z,97906.03
2023-12-22T06:21:15.698Z,97904.50
2023-12-22T06:23:41.698Z,97929.78
2023-12-22T06:26:13.643Z,97925.84
2023-12-22T06:28:40.299Z,97920.50
2023-12-22T06:31:06.874Z,97929.75
2023-12-22T06:33:32.874Z,97937.41
2023-12-22T06:35:58.855Z,97924.13
2023-12-22T06:38:24.673Z,97925.72
2023-12-22T06:40:51.058Z,97915.50
2023-12-22T06:43:16.854Z,97918.66
2023-12-22T06:45:42.703Z,97913.56
2023-12-22T06:48:10.292Z,97913.63
2023-12-22T06:50:37.379Z,97916.06
2023-12-22T06:53:10.967Z,97915.19
2023-12-22T06:55:45.195Z,97923.06
2023-12-22T06:58:11.011Z,97929.88
2023-12-22T07:00:38.366Z,97931.59
2023-12-22T07:03:04.313Z,97934.88
2023-12-22T07:05:30.369Z,97929.72
2023-12-22T07:07:56.234Z,97935.22
2023-12-22T07:10:22.217Z,97945.50
2023-12-22T07:12:48.713Z,97945.19
2023-12-22T07:15:14.613Z,97944.31
2023-12-22T07:17:40.524Z,97944.19
2023-12-22T07:20:06.810Z,97942.31
2023-12-22T07:22:32.638Z,97937.91
2023-12-22T07:24:58.999Z,97938.56
2023-12-22T07:27:27.320Z,97939.41
2023-12-22T07:29:53.677Z,97926.66
2023-12-22T07:32:19.564Z,97925.25
2023-12-22T07:34:45.927Z,97915.09
2023-12-22T07:37:11.928Z,97923.16
2023-12-22T07:39:38.417Z,97929.88
2023-12-22T07:42:04.675Z,97933.34
2023-12-22T07:44:30.494Z,97938.41
2023-12-22T07:46:59.037Z,97935.91
2023-12-22T07:49:25.212Z,97940.31
2023-12-22T07:51:52.835Z,97935.41
2023-12-22T07:54:18.951Z,97945.00
2023-12-22T07:56:44.778Z,97945.78
2023-12-22T07:59:22.443Z,97958.03
2023-12-22T08:01:55.907Z,97955.31
2023-12-22T08:04:21.812Z,97962.00
2023-12-22T08:06:47.704Z,97954.19
2023-12-22T08:09:13.508Z,97941.97
2023-12-22T08:11:39.335Z,97949.66
2023-12-22T08:14:05.182Z,97941.00
2023-12-22T08:16:33.067Z,97930.59
2023-12-22T08:18:58.985Z,97934.44
2023-12-22T08:21:33.742Z,97946.28
2023-12-22T08:24:05.848Z,97938.56
2023-12-22T08:26:31.823Z,97949.13
2023-12-22T08:28:57.814Z,97937.44
2023-12-22T08:31:23.686Z,97915.31
2023-12-22T08:33:49.675Z,97947.03
2023-12-22T08:36:15.852Z,97957.81
2023-12-22T08:38:42.503Z,97961.34
2023-12-22T08:41:09.886Z,97965.19
2023-12-22T08:43:35.971Z,97967.28
2023-12-22T08:46:01.830Z,97964.03
2023-12-22T08:48:27.695Z,97956.28
2023-12-22T08:50:53.771Z,97979.97
2023-12-22T08:53:19.729Z,97981.38
2023-12-22T08:55:45.547Z,97975.13
2023-12-22T08:58:11.529Z,97991.72
2023-12-22T09:00:37.413Z,98012.03
2023-12-22T09:03:03.465Z,98003.50
2023-12-22T09:05:29.490Z,97993.09
2023-12-22T09:07:55.462Z,98000.41
2023-12-22T09:10:21.588Z,97989.91
2023-12-22T09:12:47.530Z,97989.81
2023-12-22T09:15:13.540Z,97988.06
2023-12-22T09:17:39.908Z,97981.28
2023-12-22T09:20:08.172Z,97987.09
2023-12-22T09:22:34.069Z,97996.63
2023-12-22T09:25:00.456Z,97981.03
2023-12-22T09:27:30.607Z,97975.56
2023-12-22T09:29:56.462Z,97975.31
2023-12-22T09:32:22.257Z,97967.78
2023-12-22T09:34:48.123Z,97967.78
2023-12-22T09:37:14.033Z,97974.31
2023-12-22T09:39:39.826Z,97969.81
2023-12-22T09:42:06.105Z,97983.91
2023-12-22T09:44:34.213Z,97985.47
2023-12-22T09:47:04.919Z,97996.50
2023-12-22T09:49:30.958Z,97991.63
2023-12-22T09:51:57.888Z,97996.09
2023-12-22T09:54:25.714Z,97981.53
2023-12-22T09:56:52.567Z,97985.16
2023-12-22T09:59:19.696Z,97976.75
2023-12-22T10:01:47.496Z,97976.72
2023-12-22T10:04:14.292Z,97979.38
2023-12-22T10:06:41.929Z,97985.63
2023-12-22T10:09:09.380Z,97970.06
2023-12-22T10:11:37.816Z,97974.78
2023-12-22T10:14:05.386Z,97986.72
2023-12-22T10:16:31.445Z,97978.81
2023-12-22T10:18:59.011Z,97983.75
2023-12-22T10:21:24.867Z,97980.31
2023-12-22T10:23:50.642Z,97995.75
2023-12-22T10:26:17.519Z,97988.22
2023-12-22T10:28:43.625Z,97960.28
2023-12-22T10:31:09.842Z,97955.19
2023-12-22T10:33:35.705Z,97948.88
2023-12-22T10:36:02.153Z,97945.88
2023-12-22T10:38:34.434Z,97923.84
2023-12-22T10:41:02.248Z,97925.78
2023-12-22T10:43:28.168Z,97925.31
2023-12-22T10:45:54.009Z,97937.16
2023-12-22T10:48:19.991Z,97915.22
2023-12-22T10:50:47.575Z,97927.84
2023-12-22T10:53:15.370Z,97932.19
2023-12-22T10:55:47.470Z,97931.13
2023-12-22T10:58:13.485Z,97929.34
2023-12-22T11:00:43.962Z,97921.19
2023-12-22T11:03:17.152Z,97945.34
2023-12-22T11:05:46.346Z,97946.91
2023-12-22T11:08:13.027Z,97947.81
2023-12-22T11:10:44.736Z,97939.81
2023-12-22T11:13:12.952Z,97938.75
2023-12-22T11:15:41.078Z,97952.75
2023-12-22T11:18:09.139Z,97967.78
2023-12-22T11:20:36.414Z,97934.78
2023-12-22T11:23:02.755Z,97947.66
2023-12-22T11:25:28.967Z,97940.81
2023-12-22T11:27:56.399Z,97934.94
2023-12-22T11:30:25.983Z,97961.84
2023-12-22T11:32:54.346Z,97939.47
2023-12-22T11:35:23.949Z,97962.22
2023-12-22T11:38:00.091Z,98004.75
2023-12-22T11:40:26.047Z,97966.81
2023-12-22T11:42:52.891Z,97960.81
2023-12-22T11:45:19.471Z,97941.75
2023-12-22T11:47:46.840Z,97948.22
2023-12-22T11:50:12.846Z,97945.66
2023-12-22T11:52:39.584Z,97962.69
2023-12-22T11:55:06.726Z,97955.19
2023-12-22T11:57:34.335Z,97957.31
2023-12-22T12:00:11.236Z,97994.44
2023-12-22T12:02:40.651Z,97963.94
2023-12-22T12:05:10.587Z,97965.75
2023-12-22T12:07:46.451Z,97968.91
2023-12-22T12:10:33.417Z,97969.94
2023-12-22T12:13:05.951Z,97959.81
2023-12-22T12:15:34.013Z,97975.34
2023-12-22T12:18:00.863Z,97965.03
2023-12-22T12:20:27.631Z,97973.63
2023-12-22T12:22:54.643Z,97981.59
2023-12-22T12:25:32.623Z,97977.00
2023-12-22T12:28:06.601Z,97975.75
2023-12-22T12:30:33.172Z,97974.81
2023-12-22T12:33:06.192Z,97990.06
2023-12-22T12:35:33.527Z,97985.03
2023-12-22T12:38:03.789Z,97972.25
2023-12-22T12:40:30.084Z,97971.16
2023-12-22T12:42:56.792Z,97961.09
2023-12-22T12:45:26.375Z,97977.50
2023-12-22T12:48:00.849Z,97971.88
2023-12-22T12:50:34.637Z,97970.06
2023-12-22T12:53:01.018Z,97989.97
2023-12-22T12:55:27.136Z,97959.03
2023-12-22T12:57:54.488Z,97966.31
2023-12-22T13:00:31.537Z,97965.88
2023-12-22T13:03:03.276Z,97950.91
2023-12-22T13:05:29.354Z,97956.16
2023-12-22T13:08:15.728Z,97948.28
2023-12-22T13:10:41.713Z,97965.72
2023-12-22T13:13:07.674Z,97972.16
2023-12-22T13:15:34.216Z,97978.63
2023-12-22T13:18:00.411Z,97974.97
2023-12-22T13:20:27.773Z,97962.22
2023-12-22T13:22:53.877Z,97962.22
2023-12-22T13:25:21.540Z,97987.47
2023-12-22T13:27:52.052Z,97974.16
2023-12-22T13:30:34.571Z,97967.97
2023-12-22T13:33:00.692Z,97944.06
2023-12-22T13:35:28.431Z,97952.41
2023-12-22T13:37:54.713Z,97952.97
2023-12-22T13:40:21.248Z,97959.34
2023-12-22T13:42:55.561Z,98013.34
2023-12-22T13:45:21.481Z,97969.16
2023-12-22T13:47:48.629Z,97970.41
2023-12-22T13:50:16.375Z,97970.34
2023-12-22T13:52:44.402Z,97980.66
2023-12-22T13:55:11.679Z,97964.72
2023-12-22T13:57:37.574Z,97970.66
2023-12-22T14:00:26.845Z,97962.75
2023-12-22T14:02:55.878Z,97965.41
2023-12-22T14:05:21.934Z,97969.31
2023-12-22T14:07:48.599Z,98006.03
2023-12-22T14:10:14.756Z,98032.28
2023-12-22T14:12:41.534Z,98048.50
2023-12-22T14:15:11.472Z,98073.97
2023-12-22T14:17:37.993Z,98071.00
2023-12-22T14:20:05.581Z,98043.69
2023-12-22T14:22:31.479Z,98024.59
2023-12-22T14:24:57.262Z,98001.97
2023-12-22T14:27:26.171Z,98002.97
2023-12-22T14:29:52.012Z,98009.00
2023-12-22T14:32:20.605Z,97994.66
2023-12-22T14:34:47.274Z,97993.66
2023-12-22T14:37:13.779Z,97970.88
2023-12-22T14:39:39.977Z,97994.50
2023-12-22T14:42:06.071Z,97978.34
2023-12-22T14:44:31.889Z,98008.81
2023-12-22T14:46:57.693Z,98010.56
2023-12-22T14:49:24.244Z,98026.94
2023-12-22T14:51:54.495Z,98040.50
2023-12-22T14:54:21.340Z,98038.81
2023-12-22T14:56:47.269Z,98043.09
2023-12-22T14:59:15.228Z,98051.38
2023-12-22T15:01:41.470Z,98054.88
2023-12-22T15:04:08.384Z,98052.25
2023-12-22T15:06:38.934Z,98036.34
2023-12-22T15:09:04.794Z,98042.09
2023-12-22T15:11:32.147Z,98037.19
2023-12-22T15:13:58.496Z,98039.69
2023-12-22T15:16:24.690Z,98016.50
2023-12-22T15:18:50.483Z,98010.56
2023-12-22T15:21:24.237Z,98009.84
2023-12-22T15:23:51.393Z,98042.88
2023-12-22T15:26:23.115Z,98062.38
2023-12-22T15:28:49.848Z,98077.63
2023-12-22T15:31:15.689Z,98093.84
2023-12-22T15:33:41.597Z,98090.47
2023-12-22T15:36:07.478Z,98084.59
2023-12-22T15:38:33.292Z,98101.41
2023-12-22T15:41:02.656Z,98089.78
2023-12-22T15:43:31.115Z,98095.00
2023-12-22T15:45:57.417Z,98109.06
2023-12-22T15:48:23.401Z,98087.88
2023-12-22T15:50:49.462Z,98080.16
2023-12-22T15:53:15.353Z,98094.34
2023-12-22T15:55:41.411Z,98119.50
2023-12-22T15:58:07.283Z,98128.75
2023-12-22T16:00:33.146Z,98136.38
2023-12-22T16:02:59.005Z,98120.59
2023-12-22T16:05:24.865Z,98132.28
2023-12-22T16:07:50.760Z,98118.91
2023-12-22T16:10:16.653Z,98118.94
2023-12-22T16:12:42.432Z,98106.25
2023-12-22T16:15:08.878Z,98102.66
2023-12-22T16:17:35.069Z,98096.63
2023-12-22T16:20:01.055Z,98094.84
2023-12-22T16:22:26.988Z,98089.09
2023-12-22T16:24:52.818Z,98081.75
2023-12-22T16:27:18.690Z,98082.72
2023-12-22T16:29:47.224Z,98090.47
2023-12-22T16:32:14.759Z,98091.47
2023-12-22T16:34:46.254Z,98090.53
2023-12-22T16:37:12.395Z,98084.28
2023-12-22T16:39:52.934Z,98085.38
2023-12-22T16:42:22.101Z,98090.59
2023-12-22T16:44:48.288Z,98092.88
2023-12-22T16:47:14.157Z,98084.78
2023-12-22T16:49:41.284Z,98092.19
2023-12-22T16:52:07.231Z,98093.28
2023-12-22T16:54:33.084Z,98096.84
2023-12-22T16:56:58.915Z,98104.28
2023-12-22T16:59:26.133Z,98099.66
2023-12-22T17:02:03.893Z,98102.63
2023-12-22T17:04:38.643Z,98082.41
2023-12-22T17:07:07.427Z,98081.41
2023-12-22T17:09:34.090Z,98069.22
2023-12-22T17:12:00.039Z,98075.84
2023-12-22T17:14:25.877Z,98077.56
2023-12-22T17:16:51.754Z,98079.63
2023-12-22T17:19:17.612Z,98078.59
2023-12-22T17:21:43.472Z,98065.72
2023-12-22T17:24:09.715Z,98080.22
2023-12-22T17:26:35.627Z,98084.41
2023-12-22T17:29:01.640Z,98080.34
2023-12-22T17:31:27.768Z,98087.00
2023-12-22T17:33:54.076Z,98087.13
2023-12-22T17:36:20.205Z,98096.38
2023-12-22T17:38:46.055Z,98102.31
2023-12-22T17:41:12.032Z,98117.69
2023-12-22T17:43:37.896Z,98124.63
2023-12-22T17:46:03.883Z,98124.09
2023-12-22T17:48:29.813Z,98124.09
2023-12-22T17:50:55.744Z,98105.56
2023-12-22T17:53:25.389Z,98096.28
2023-12-22T17:55:51.178Z,98100.66
2023-12-22T17:58:17.032Z,98099.91
2023-12-22T18:00:42.884Z,98103.84
2023-12-22T18:03:08.669Z,98093.75
2023-12-22T18:05:35.227Z,98095.53
2023-12-22T18:08:01.312Z,98099.88
2023-12-22T18:10:27.179Z,98100.88
2023-12-22T18:12:53.078Z,98124.44
2023-12-22T18:15:18.903Z,98121.50
2023-12-22T18:17:44.787Z,98131.22
2023-12-22T18:20:10.935Z,98133.81
2023-12-22T18:22:36.768Z,98127.34
2023-12-22T18:25:02.778Z,98136.88
2023-12-22T18:27:28.675Z,98142.84
2023-12-22T18:29:54.535Z,98157.28
2023-12-22T18:32:20.878Z,98178.44
2023-12-22T18:34:46.766Z,98177.72
2023-12-22T18:37:12.657Z,98170.75
2023-12-22T18:39:38.519Z,98170.81
2023-12-22T18:42:05.281Z,98146.63
2023-12-22T18:44:31.585Z,98137.69
2023-12-22T18:46:57.604Z,98147.50
2023-12-22T18:49:23.442Z,98151.69
2023-12-22T18:51:49.272Z,98143.09
2023-12-22T18:54:15.288Z,98128.09
2023-12-22T18:56:41.105Z,98133.16
2023-12-22T18:59:07.536Z,98128.09
2023-12-22T19:01:43.726Z,98121.28
2023-12-22T19:04:18.199Z,98112.00
2023-12-22T19:06:44.113Z,98099.41
2023-12-22T19:09:10.011Z,98112.03
2023-12-22T19:11:36.035Z,98093.63
2023-12-22T19:14:02.052Z,98092.00
2023-12-22T19:16:27.897Z,98097.91
2023-12-22T19:18:53.818Z,98076.75
2023-12-22T19:21:19.810Z,98056.16
2023-12-22T19:23:45.681Z,98053.06
2023-12-22T19:26:11.619Z,98057.13
2023-12-22T19:28:37.549Z,98046.88
2023-12-22T19:31:03.810Z,98045.16
2023-12-22T19:33:29.673Z,98052.97
2023-12-22T19:35:55.974Z,98053.81
2023-12-22T19:38:22.698Z,98031.09
2023-12-22T19:40:48.558Z,98036.72
2023-12-22T19:43:14.796Z,98037.06
2023-12-22T19:45:44.092Z,98011.69
2023-12-22T19:48:10.286Z,98001.84
2023-12-22T19:50:36.391Z,97985.34
2023-12-22T19:53:02.349Z,97990.88
2023-12-22T19:55:28.516Z,97993.72
2023-12-22T19:57:54.836Z,97985.31
2023-12-22T20:00:21.403Z,97985.25
2023-12-22T20:02:48.256Z,97970.72
2023-12-22T20:05:14.440Z,97984.19
2023-12-22T20:07:40.595Z,97969.78
2023-12-22T20:10:07.041Z,97975.47
2023-12-22T20:12:32.866Z,97971.44
2023-12-22T20:14:59.201Z,97982.31
2023-12-22T20:17:25.065Z,97992.22
2023-12-22T20:19:51.604Z,98000.25
2023-12-22T20:22:17.720Z,98003.81
2023-12-22T20:24:43.862Z,98019.88
2023-12-22T20:27:09.764Z,98017.25
2023-12-22T20:29:35.579Z,98020.56
2023-12-22T20:32:02.970Z,98013.59
2023-12-22T20:34:28.842Z,98030.47
2023-12-22T20:36:54.648Z,98018.66
2023-12-22T20:39:20.493Z,98015.34
2023-12-22T20:41:46.547Z,98012.91
2023-12-22T20:44:12.515Z,98007.69
2023-12-22T20:46:38.505Z,97991.69
2023-12-22T20:49:04.702Z,98006.63
2023-12-22T20:51:32.656Z,98000.94
2023-12-22T20:53:58.661Z,98007.53
2023-12-22T20:56:24.614Z,98003.41
2023-12-22T20:58:50.595Z,98006.81
2023-12-22T21:01:16.665Z,98002.53
2023-12-22T21:03:43.016Z,98016.63
2023-12-22T21:06:09.028Z,97991.91
2023-12-22T21:08:35.125Z,97996.75
2023-12-22T21:11:03.858Z,98001.91
2023-12-22T21:13:31.388Z,98002.75
2023-12-22T21:15:57.602Z,98003.88
2023-12-22T21:18:23.533Z,97992.97
2023-12-22T21:20:51.210Z,98003.22
2023-12-22T21:23:17.282Z,98006.03
2023-12-22T21:25:43.175Z,98000.94
2023-12-22T21:28:09.005Z,98012.56
2023-12-22T21:30:34.873Z,98012.50
2023-12-22T21:33:02.227Z,98007.75
2023-12-22T21:35:28.623Z,98013.44
2023-12-22T21:37:54.529Z,98027.06
2023-12-22T21:40:20.388Z,98031.50
2023-12-22T21:42:46.885Z,98034.34
2023-12-22T21:45:13.303Z,98036.72
2023-12-22T21:47:39.477Z,98052.06
2023-12-22T21:50:06.024Z,98063.19
2023-12-22T21:52:31.938Z,98057.41
2023-12-22T21:54:57.815Z,98067.28
2023-12-22T21:57:23.801Z,98066.41
2023-12-22T21:59:49.862Z,98062.06
2023-12-22T22:02:15.912Z,98060.47
2023-12-22T22:04:42.597Z,98059.69
2023-12-22T22:07:10.004Z,98057.13
2023-12-22T22:09:35.844Z,98063.34
2023-12-22T22:12:01.759Z,98060.91
2023-12-22T22:14:30.300Z,98053.25
2023-12-22T22:16:56.774Z,98039.94
2023-12-22T22:19:22.848Z,98039.28
2023-12-22T22:21:48.724Z,98025.88
2023-12-22T22:24:14.585Z,98025.84
2023-12-22T22:26:40.944Z,98030.81
2023-12-22T22:29:07.038Z,98035.72
2023-12-22T22:31:32.845Z,98037.06
2023-12-22T22:33:59.136Z,98051.28
2023-12-22T22:36:25.023Z,98059.16
2023-12-22T22:38:50.830Z,98068.50
2023-12-22T22:41:16.646Z,98073.25
2023-12-22T22:43:42.891Z,98074.47
2023-12-22T22:46:11.621Z,98077.88
2023-12-22T22:48:39.273Z,98080.94
2023-12-22T22:51:05.128Z,98075.13
2023-12-22T22:53:30.921Z,98063.53
2023-12-22T22:55:56.794Z,98060.72
2023-12-22T22:58:22.927Z,98038.88
2023-12-22T23:00:48.890Z,98048.28
2023-12-22T23:03:14.784Z,98034.03
2023-12-22T23:05:41.687Z,98046.16
2023-12-22T23:08:07.628Z,98050.66
2023-12-22T23:10:33.523Z,98063.94
2023-12-22T23:12:59.361Z,98064.84
2023-12-22T23:15:25.207Z,98062.66
2023-12-22T23:17:51.343Z,98068.53
2023-12-22T23:20:17.446Z,98080.63
2023-12-22T23:22:44.745Z,98090.91
2023-12-22T23:25:10.850Z,98084.22
2023-12-22T23:27:36.687Z,98082.72
2023-12-22T23:30:06.848Z,98085.13
2023-12-22T23:32:32.685Z,98086.06
2023-12-22T23:34:58.633Z,98090.25
2023-12-22T23:37:24.462Z,98091.81
2023-12-22T23:39:50.288Z,98110.38
2023-12-22T23:42:16.141Z,98107.13
2023-12-22T23:44:43.716Z,98106.44
2023-12-22T23:47:09.870Z,98104.56
2023-12-22T23:49:35.805Z,98097.75
2023-12-22T23:52:01.666Z,98114.41
2023-12-22T23:54:27.505Z,98116.25
2023-12-22T23:56:53.342Z,98116.09
2023-12-22T23:59:20.002Z,98102.59
